N174K KARR-KARR
Flight info
| Callsign | N174K |
|---|---|
| Flight time | 0h 2m |
| Altitude | 8500 |
| Route | WEST DEPARTURE |
| Aircraft | C172/L-V/N |
Departure
| Time | 2026-04-19 14:14 |
|---|---|
| Airport | Aurora Municipal Airport (KARR) |
Arrival
| Time | 2026-04-19 14:16 |
|---|---|
| Airport | Aurora Municipal Airport (KARR) |
| Time | Latitude | Longitude | Altitude | Speed | Heading |
|---|---|---|---|---|---|
| 2026-04-19 14:00 | 41.76648 | -88.46877 | 705 ft | 0 kts | 216° |
| 2026-04-19 14:03 | 41.76649 | -88.46876 | 705 ft | 2 kts | 216° |
| 2026-04-19 14:04 | 41.76661 | -88.46865 | 697 ft | 2 kts | 216° |
| 2026-04-19 14:04 | 41.76664 | -88.46862 | 697 ft | 0 kts | 216° |
| 2026-04-19 14:05 | 41.76661 | -88.46908 | 700 ft | 9 kts | 272° |
| 2026-04-19 14:05 | 41.76693 | -88.46961 | 704 ft | 8 kts | 328° |
| 2026-04-19 14:05 | 41.76762 | -88.46981 | 704 ft | 13 kts | 356° |
| 2026-04-19 14:05 | 41.76848 | -88.46974 | 705 ft | 8 kts | 351° |
| 2026-04-19 14:06 | 41.76895 | -88.47004 | 706 ft | 3 kts | 0° |
| 2026-04-19 14:08 | 41.76923 | -88.46982 | 706 ft | 12 kts | 70° |
| 2026-04-19 14:08 | 41.76926 | -88.46866 | 707 ft | 12 kts | 86° |
| 2026-04-19 14:08 | 41.76927 | -88.46758 | 707 ft | 12 kts | 89° |
| 2026-04-19 14:08 | 41.76927 | -88.46625 | 708 ft | 17 kts | 85° |
| 2026-04-19 14:09 | 41.76931 | -88.46448 | 709 ft | 21 kts | 93° |
| 2026-04-19 14:09 | 41.76932 | -88.46231 | 713 ft | 23 kts | 93° |
| 2026-04-19 14:09 | 41.76965 | -88.46161 | 711 ft | 0 kts | 359° |
| 2026-04-19 14:12 | 41.76966 | -88.46161 | 711 ft | 0 kts | 346° |
| 2026-04-19 14:12 | 41.76992 | -88.46162 | 711 ft | 8 kts | 1° |
| 2026-04-19 14:12 | 41.77042 | -88.46244 | 711 ft | 23 kts | 270° |
| 2026-04-19 14:13 | 41.77039 | -88.46657 | 708 ft | 67 kts | 270° |
| 2026-04-19 14:13 | 41.77030 | -88.47435 | 707 ft | 96 kts | 270° |
| 2026-04-19 14:13 | 41.77008 | -88.48351 | 836 ft | 100 kts | 272° |
| 2026-04-19 14:13 | 41.76974 | -88.49231 | 1111 ft | 92 kts | 245° |
| 2026-04-19 14:14 | 41.76389 | -88.49374 | 1467 ft | 93 kts | 157° |
| 2026-04-19 14:14 | 41.76168 | -88.48501 | 1652 ft | 116 kts | 90° |
| 2026-04-19 14:14 | 41.76167 | -88.47334 | 1700 ft | 132 kts | 91° |
| 2026-04-19 14:14 | 41.76137 | -88.46052 | 1691 ft | 142 kts | 93° |
| 2026-04-19 14:15 | 41.76073 | -88.44752 | 1699 ft | 134 kts | 95° |
| 2026-04-19 14:15 | 41.76349 | -88.43722 | 1545 ft | 106 kts | 26° |
| 2026-04-19 14:15 | 41.76945 | -88.43709 | 1449 ft | 79 kts | 318° |
| 2026-04-19 14:15 | 41.77066 | -88.44386 | 1137 ft | 82 kts | 264° |
| 2026-04-19 14:16 | 41.77051 | -88.45128 | 929 ft | 74 kts | 272° |
| 2026-04-19 14:16 | 41.77042 | -88.45754 | 787 ft | 61 kts | 273° |
| 2026-04-19 14:16 | 41.77043 | -88.46245 | 711 ft | 46 kts | 270° |
| 2026-04-19 14:16 | 41.77037 | -88.46775 | 707 ft | 77 kts | 269° |
| 2026-04-19 14:17 | 41.77019 | -88.47616 | 766 ft | 95 kts | 271° |
| 2026-04-19 14:17 | 41.76992 | -88.48381 | 1175 ft | 79 kts | 266° |
| 2026-04-19 14:17 | 41.76910 | -88.49157 | 1383 ft | 84 kts | 242° |
| 2026-04-19 14:17 | 41.76395 | -88.49239 | 1711 ft | 96 kts | 175° |
| 2026-04-19 14:18 | 41.76031 | -88.48406 | 1657 ft | 128 kts | 84° |
| 2026-04-19 14:18 | 41.76098 | -88.47247 | 1729 ft | 126 kts | 83° |
| 2026-04-19 14:18 | 41.76140 | -88.46039 | 1655 ft | 126 kts | 90° |
| 2026-04-19 14:18 | 41.76098 | -88.44962 | 1509 ft | 110 kts | 90° |
| 2026-04-19 14:19 | 41.76228 | -88.44031 | 1398 ft | 90 kts | 37° |
| 2026-04-19 14:19 | 41.76753 | -88.43859 | 1278 ft | 79 kts | 345° |
| 2026-04-19 14:19 | 41.77039 | -88.44305 | 1158 ft | 73 kts | 276° |
| 2026-04-19 14:19 | 41.77048 | -88.44994 | 954 ft | 74 kts | 269° |
| 2026-04-19 14:20 | 41.77045 | -88.45649 | 805 ft | 66 kts | 272° |
| 2026-04-19 14:20 | 41.77041 | -88.46241 | 733 ft | 61 kts | 272° |
| 2026-04-19 14:20 | 41.77034 | -88.46785 | 703 ft | 55 kts | 270° |
| 2026-04-19 14:20 | 41.77033 | -88.47312 | 706 ft | 72 kts | 268° |
| 2026-04-19 14:21 | 41.77017 | -88.48113 | 781 ft | 92 kts | 270° |
| 2026-04-19 14:21 | 41.76991 | -88.48932 | 1083 ft | 82 kts | 271° |
| 2026-04-19 14:21 | 41.76936 | -88.49703 | 1304 ft | 87 kts | 265° |
| 2026-04-19 14:21 | 41.76893 | -88.50526 | 1539 ft | 87 kts | 275° |
| 2026-04-19 14:22 | 41.77143 | -88.51263 | 1793 ft | 89 kts | 302° |
| 2026-04-19 14:22 | 41.77485 | -88.51919 | 2023 ft | 87 kts | 296° |
| 2026-04-19 14:22 | 41.77701 | -88.52582 | 2356 ft | 81 kts | 285° |
| 2026-04-19 14:22 | 41.77858 | -88.53334 | 2662 ft | 77 kts | 289° |
| 2026-04-19 14:23 | 41.78191 | -88.53786 | 3019 ft | 70 kts | 323° |
| 2026-04-19 14:23 | 41.78689 | -88.53987 | 3237 ft | 74 kts | 333° |
| 2026-04-19 14:23 | 41.79161 | -88.54194 | 3527 ft | 72 kts | 327° |
| 2026-04-19 14:23 | 41.79590 | -88.54488 | 3780 ft | 68 kts | 320° |
| 2026-04-19 14:24 | 41.80006 | -88.54807 | 3984 ft | 70 kts | 321° |
| 2026-04-19 14:24 | 41.80491 | -88.54993 | 4189 ft | 79 kts | 345° |
| 2026-04-19 14:24 | 41.81095 | -88.54874 | 4314 ft | 95 kts | 358° |
| 2026-04-19 14:24 | 41.81753 | -88.54654 | 4445 ft | 107 kts | 14° |
| 2026-04-19 14:25 | 41.82441 | -88.54330 | 4571 ft | 98 kts | 343° |
| 2026-04-19 14:25 | 41.82853 | -88.54920 | 4613 ft | 93 kts | 287° |
| 2026-04-19 14:25 | 41.83014 | -88.55731 | 4795 ft | 88 kts | 285° |
| 2026-04-19 14:25 | 41.82862 | -88.56490 | 4917 ft | 104 kts | 226° |
| 2026-04-19 14:26 | 41.82083 | -88.56284 | 4899 ft | 146 kts | 133° |
| 2026-04-19 14:26 | 41.81632 | -88.55079 | 5040 ft | 141 kts | 118° |
| 2026-04-19 14:26 | 41.81207 | -88.53932 | 5212 ft | 135 kts | 120° |
| 2026-04-19 14:26 | 41.81020 | -88.52770 | 5415 ft | 126 kts | 65° |
| 2026-04-19 14:27 | 41.81573 | -88.52296 | 5599 ft | 91 kts | 330° |
| 2026-04-19 14:27 | 41.81923 | -88.52892 | 5784 ft | 80 kts | 296° |
| 2026-04-19 14:27 | 41.82184 | -88.53615 | 5855 ft | 90 kts | 295° |
| 2026-04-19 14:27 | 41.82427 | -88.54355 | 6025 ft | 85 kts | 294° |
| 2026-04-19 14:28 | 41.82692 | -88.55071 | 6150 ft | 87 kts | 296° |
| 2026-04-19 14:28 | 41.82954 | -88.55714 | 6205 ft | 70 kts | 297° |
| 2026-04-19 14:28 | 41.83170 | -88.56197 | 6247 ft | 52 kts | 298° |
| 2026-04-19 14:28 | 41.83317 | -88.56570 | 6239 ft | 40 kts | 292° |
| 2026-04-19 14:29 | 41.83389 | -88.56880 | 6178 ft | 27 kts | 271° |
| 2026-04-19 14:29 | 41.83202 | -88.57193 | 5837 ft | 35 kts | 258° |
| 2026-04-19 14:29 | 41.83165 | -88.57518 | 5522 ft | 33 kts | 313° |
| 2026-04-19 14:29 | 41.83341 | -88.57805 | 3994 ft | 58 kts | 294° |
| 2026-04-19 14:30 | 41.83542 | -88.57987 | 4167 ft | 57 kts | 319° |
| 2026-04-19 14:30 | 41.83904 | -88.58364 | 4267 ft | 67 kts | 304° |
| 2026-04-19 14:30 | 41.84214 | -88.58849 | 4489 ft | 66 kts | 306° |
| 2026-04-19 14:30 | 41.84475 | -88.59263 | 4860 ft | 44 kts | 295° |
| 2026-04-19 14:31 | 41.84517 | -88.59589 | 4974 ft | 49 kts | 263° |
| 2026-04-19 14:31 | 41.84391 | -88.59621 | 4156 ft | 104 kts | 25° |
| 2026-04-19 14:31 | 41.85043 | -88.58855 | 3914 ft | 106 kts | 22° |
| 2026-04-19 14:31 | 41.85107 | -88.57885 | 4076 ft | 120 kts | 135° |
| 2026-04-19 14:32 | 41.84477 | -88.56959 | 3990 ft | 141 kts | 136° |
| 2026-04-19 14:32 | 41.83802 | -88.55910 | 3702 ft | 161 kts | 134° |
| 2026-04-19 14:32 | 41.83062 | -88.54745 | 3337 ft | 168 kts | 135° |
| 2026-04-19 14:32 | 41.82292 | -88.53560 | 2991 ft | 169 kts | 136° |
| 2026-04-19 14:33 | 41.81532 | -88.52366 | 2771 ft | 167 kts | 135° |
| 2026-04-19 14:33 | 41.80754 | -88.51186 | 2358 ft | 169 kts | 136° |
| 2026-04-19 14:33 | 41.79833 | -88.50278 | 1943 ft | 160 kts | 163° |
| 2026-04-19 14:33 | 41.78790 | -88.49925 | 1644 ft | 150 kts | 178° |
| 2026-04-19 14:34 | 41.77764 | -88.49799 | 1397 ft | 146 kts | 182° |
| 2026-04-19 14:34 | 41.76793 | -88.49670 | 1346 ft | 139 kts | 166° |
| 2026-04-19 14:34 | 41.76094 | -88.48803 | 1217 ft | 149 kts | 119° |
| 2026-04-19 14:35 | 41.75980 | -88.46212 | 1518 ft | 125 kts | 87° |
| 2026-04-19 14:35 | 41.75987 | -88.44934 | 1404 ft | 138 kts | 90° |
| 2026-04-19 14:35 | 41.76360 | -88.44123 | 1462 ft | 104 kts | 3° |
| 2026-04-19 14:35 | 41.76933 | -88.44448 | 1305 ft | 84 kts | 304° |
| 2026-04-19 14:36 | 41.77047 | -88.45197 | 895 ft | 84 kts | 273° |
| 2026-04-19 14:36 | 41.77046 | -88.45895 | 749 ft | 63 kts | 271° |
| 2026-04-19 14:36 | 41.77040 | -88.46384 | 709 ft | 44 kts | 270° |
| 2026-04-19 14:36 | 41.77036 | -88.46764 | 707 ft | 53 kts | 269° |
| 2026-04-19 14:37 | 41.77034 | -88.47446 | 707 ft | 90 kts | 270° |
| 2026-04-19 14:37 | 41.77010 | -88.48312 | 931 ft | 89 kts | 268° |
| 2026-04-19 14:37 | 41.76879 | -88.49061 | 1268 ft | 86 kts | 223° |
| 2026-04-19 14:37 | 41.76291 | -88.48833 | 1503 ft | 110 kts | 122° |
| 2026-04-19 14:38 | 41.76207 | -88.47804 | 1513 ft | 116 kts | 86° |
| 2026-04-19 14:38 | 41.76256 | -88.46745 | 1501 ft | 114 kts | 88° |
| 2026-04-19 14:38 | 41.76287 | -88.45747 | 1401 ft | 104 kts | 87° |
| 2026-04-19 14:38 | 41.76319 | -88.44813 | 1235 ft | 100 kts | 86° |
| 2026-04-19 14:39 | 41.76536 | -88.44001 | 1151 ft | 83 kts | 16° |
| 2026-04-19 14:39 | 41.76988 | -88.44092 | 1108 ft | 63 kts | 307° |
| 2026-04-19 14:39 | 41.77068 | -88.44657 | 960 ft | 71 kts | 263° |
| 2026-04-19 14:39 | 41.77047 | -88.45304 | 897 ft | 64 kts | 270° |
| 2026-04-19 14:40 | 41.77043 | -88.45898 | 777 ft | 60 kts | 271° |
| 2026-04-19 14:40 | 41.77043 | -88.46433 | 709 ft | 53 kts | 269° |
| 2026-04-19 14:40 | 41.77029 | -88.47035 | 712 ft | 82 kts | 271° |
| 2026-04-19 14:40 | 41.76992 | -88.47769 | 989 ft | 74 kts | 266° |
| 2026-04-19 14:41 | 41.76967 | -88.48494 | 1196 ft | 85 kts | 265° |
| 2026-04-19 14:41 | 41.77000 | -88.49243 | 1490 ft | 80 kts | 288° |
| 2026-04-19 14:41 | 41.77228 | -88.49956 | 1687 ft | 89 kts | 290° |
| 2026-04-19 14:41 | 41.77437 | -88.50759 | 1872 ft | 92 kts | 285° |
| 2026-04-19 14:42 | 41.77630 | -88.51578 | 2039 ft | 92 kts | 285° |
| 2026-04-19 14:42 | 41.77806 | -88.52396 | 2201 ft | 93 kts | 284° |
| 2026-04-19 14:42 | 41.77973 | -88.53238 | 2442 ft | 93 kts | 284° |
| 2026-04-19 14:42 | 41.78127 | -88.54087 | 2588 ft | 94 kts | 283° |
| 2026-04-19 14:43 | 41.78262 | -88.54939 | 2732 ft | 93 kts | 281° |
| 2026-04-19 14:43 | 41.78342 | -88.55504 | 2823 ft | 93 kts | 281° |
| 2026-04-19 14:43 | 41.78448 | -88.56358 | 2963 ft | 93 kts | 279° |
| 2026-04-19 14:43 | 41.78538 | -88.57219 | 3147 ft | 93 kts | 279° |
| 2026-04-19 14:44 | 41.78613 | -88.58078 | 3300 ft | 93 kts | 278° |
| 2026-04-19 14:44 | 41.78672 | -88.58937 | 3440 ft | 93 kts | 277° |
| 2026-04-19 14:44 | 41.78712 | -88.59800 | 3682 ft | 92 kts | 276° |
| 2026-04-19 14:44 | 41.78743 | -88.60653 | 3851 ft | 91 kts | 276° |
| 2026-04-19 14:45 | 41.78756 | -88.61493 | 3978 ft | 91 kts | 274° |
| 2026-04-19 14:45 | 41.78751 | -88.62336 | 4142 ft | 89 kts | 273° |
| 2026-04-19 14:45 | 41.78778 | -88.63141 | 4321 ft | 84 kts | 294° |
| 2026-04-19 14:45 | 41.79169 | -88.63724 | 4509 ft | 84 kts | 308° |
| 2026-04-19 14:46 | 41.79568 | -88.64299 | 4700 ft | 84 kts | 307° |
| 2026-04-19 14:46 | 41.79981 | -88.64890 | 4885 ft | 87 kts | 308° |
| 2026-04-19 14:46 | 41.80378 | -88.65481 | 5074 ft | 82 kts | 296° |
| 2026-04-19 14:46 | 41.80316 | -88.66230 | 4781 ft | 86 kts | 269° |
| 2026-04-19 14:47 | 41.80260 | -88.66996 | 4545 ft | 80 kts | 272° |
| 2026-04-19 14:47 | 41.80296 | -88.67754 | 4221 ft | 82 kts | 281° |
| 2026-04-19 14:47 | 41.80333 | -88.68493 | 3851 ft | 76 kts | 257° |
| 2026-04-19 14:47 | 41.80219 | -88.69407 | 2627 ft | 109 kts | 239° |
| 2026-04-19 14:48 | 41.79478 | -88.69179 | 2284 ft | 132 kts | 146° |
| 2026-04-19 14:48 | 41.78910 | -88.68495 | 2281 ft | 103 kts | 160° |
| 2026-04-19 14:48 | 41.78295 | -88.67796 | 1797 ft | 122 kts | 143° |
| 2026-04-19 14:48 | 41.77653 | -88.67278 | 1561 ft | 104 kts | 173° |
| 2026-04-19 14:49 | 41.77255 | -88.67657 | 1418 ft | 73 kts | 281° |
| 2026-04-19 14:49 | 41.77512 | -88.68291 | 1143 ft | 78 kts | 287° |
| 2026-04-19 14:49 | 41.77578 | -88.68989 | 960 ft | 75 kts | 272° |
| 2026-04-19 14:49 | 41.77604 | -88.69674 | 821 ft | 72 kts | 275° |
| 2026-04-19 14:50 | 41.77612 | -88.70301 | 768 ft | 61 kts | 270° |
| 2026-04-19 14:50 | 41.77616 | -88.70893 | 770 ft | 78 kts | 272° |
| 2026-04-19 14:50 | 41.77589 | -88.71661 | 1010 ft | 79 kts | 266° |
| 2026-04-19 14:50 | 41.77286 | -88.72110 | 1497 ft | 66 kts | 179° |
| 2026-04-19 14:51 | 41.77050 | -88.71469 | 1270 ft | 109 kts | 90° |
| 2026-04-19 14:51 | 41.76991 | -88.70413 | 1300 ft | 106 kts | 98° |
| 2026-04-19 14:51 | 41.76926 | -88.69491 | 1373 ft | 100 kts | 106° |
| 2026-04-19 14:51 | 41.76918 | -88.68586 | 1214 ft | 98 kts | 48° |
| 2026-04-19 14:52 | 41.77349 | -88.68581 | 1127 ft | 56 kts | 276° |
| 2026-04-19 14:52 | 41.77120 | -88.69127 | 855 ft | 70 kts | 276° |
| 2026-04-19 14:52 | 41.77142 | -88.69730 | 781 ft | 62 kts | 275° |
| 2026-04-19 14:52 | 41.77149 | -88.70240 | 769 ft | 49 kts | 273° |
| 2026-04-19 14:53 | 41.77136 | -88.70777 | 852 ft | 66 kts | 273° |
| 2026-04-19 14:53 | 41.77416 | -88.71122 | 1121 ft | 74 kts | 2° |
| 2026-04-19 14:53 | 41.77682 | -88.70411 | 1030 ft | 104 kts | 90° |
| 2026-04-19 14:53 | 41.77610 | -88.69450 | 926 ft | 102 kts | 115° |
| 2026-04-19 14:54 | 41.77168 | -88.69175 | 972 ft | 59 kts | 250° |
| 2026-04-19 14:54 | 41.77144 | -88.69815 | 783 ft | 76 kts | 274° |
| 2026-04-19 14:54 | 41.77150 | -88.70481 | 763 ft | 62 kts | 275° |
| 2026-04-19 14:54 | 41.77149 | -88.70921 | 764 ft | 22 kts | 266° |
| 2026-04-19 14:55 | 41.77100 | -88.70933 | 765 ft | 9 kts | 94° |
| 2026-04-19 14:55 | 41.77092 | -88.70800 | 765 ft | 20 kts | 96° |
| 2026-04-19 14:55 | 41.77088 | -88.70603 | 763 ft | 16 kts | 102° |
| 2026-04-19 14:55 | 41.77071 | -88.70530 | 764 ft | 0 kts | 85° |
| 2026-04-19 14:56 | 41.77072 | -88.70518 | 764 ft | 2 kts | 85° |
| 2026-04-19 15:10 | 41.77075 | -88.70494 | 763 ft | 7 kts | 82° |
| 2026-04-19 15:11 | 41.77077 | -88.70369 | 762 ft | 14 kts | 93° |
| 2026-04-19 15:11 | 41.77076 | -88.70258 | 760 ft | 10 kts | 88° |
| 2026-04-19 15:11 | 41.77076 | -88.70166 | 757 ft | 14 kts | 90° |
| 2026-04-19 15:11 | 41.77076 | -88.69984 | 756 ft | 20 kts | 95° |
| 2026-04-19 15:12 | 41.77094 | -88.69890 | 760 ft | 0 kts | 2° |
| 2026-04-19 15:13 | 41.77116 | -88.69891 | 759 ft | 6 kts | 5° |
| 2026-04-19 15:13 | 41.77145 | -88.69898 | 759 ft | 2 kts | 267° |
| 2026-04-19 15:13 | 41.77145 | -88.69901 | 759 ft | 0 kts | 270° |
| 2026-04-19 15:14 | 41.77149 | -88.70153 | 762 ft | 50 kts | 269° |
| 2026-04-19 15:14 | 41.77149 | -88.70795 | 765 ft | 85 kts | 270° |
| 2026-04-19 15:14 | 41.77096 | -88.71500 | 1168 ft | 66 kts | 279° |
| 2026-04-19 15:15 | 41.77386 | -88.71822 | 1510 ft | 66 kts | 338° |
| 2026-04-19 15:15 | 41.77888 | -88.71879 | 1731 ft | 79 kts | 356° |
| 2026-04-19 15:15 | 41.78391 | -88.71414 | 1901 ft | 103 kts | 28° |
| 2026-04-19 15:15 | 41.78712 | -88.70553 | 2122 ft | 116 kts | 82° |
| 2026-04-19 15:16 | 41.78702 | -88.69359 | 2187 ft | 130 kts | 91° |
| 2026-04-19 15:16 | 41.78645 | -88.68147 | 2449 ft | 132 kts | 92° |
| 2026-04-19 15:16 | 41.78592 | -88.66931 | 2616 ft | 133 kts | 90° |
| 2026-04-19 15:16 | 41.78580 | -88.65641 | 2688 ft | 139 kts | 87° |
| 2026-04-19 15:17 | 41.78539 | -88.64335 | 2792 ft | 141 kts | 93° |
| 2026-04-19 15:17 | 41.78448 | -88.63053 | 2904 ft | 140 kts | 95° |
| 2026-04-19 15:17 | 41.78301 | -88.61747 | 2993 ft | 142 kts | 100° |
| 2026-04-19 15:17 | 41.78113 | -88.60454 | 3119 ft | 141 kts | 99° |
| 2026-04-19 15:18 | 41.77925 | -88.59163 | 3221 ft | 141 kts | 99° |
| 2026-04-19 15:18 | 41.77755 | -88.57857 | 3333 ft | 142 kts | 102° |
| 2026-04-19 15:18 | 41.77481 | -88.56574 | 3390 ft | 144 kts | 113° |
| 2026-04-19 15:18 | 41.77021 | -88.55417 | 3483 ft | 141 kts | 128° |
| 2026-04-19 15:19 | 41.76418 | -88.54395 | 3550 ft | 136 kts | 131° |
| 2026-04-19 15:19 | 41.75931 | -88.53367 | 3417 ft | 121 kts | 126° |
| 2026-04-19 15:19 | 41.75585 | -88.52371 | 3186 ft | 118 kts | 108° |
| 2026-04-19 15:19 | 41.75410 | -88.51273 | 3015 ft | 115 kts | 99° |
| 2026-04-19 15:20 | 41.75325 | -88.50235 | 3052 ft | 110 kts | 93° |
| 2026-04-19 15:20 | 41.75325 | -88.49297 | 3015 ft | 101 kts | 84° |
| 2026-04-19 15:20 | 41.75342 | -88.48356 | 2973 ft | 99 kts | 90° |
| 2026-04-19 15:20 | 41.75249 | -88.47520 | 3002 ft | 88 kts | 101° |
| 2026-04-19 15:21 | 41.75153 | -88.46696 | 2838 ft | 92 kts | 95° |
| 2026-04-19 15:21 | 41.75120 | -88.45849 | 2769 ft | 89 kts | 87° |
| 2026-04-19 15:21 | 41.75094 | -88.45012 | 2645 ft | 94 kts | 88° |
| 2026-04-19 15:21 | 41.75069 | -88.44076 | 2532 ft | 104 kts | 93° |
| 2026-04-19 15:22 | 41.74995 | -88.43143 | 2499 ft | 100 kts | 95° |
| 2026-04-19 15:22 | 41.75122 | -88.42264 | 2431 ft | 90 kts | 41° |
| 2026-04-19 15:22 | 41.75641 | -88.41979 | 2205 ft | 79 kts | 358° |
| 2026-04-19 15:22 | 41.76174 | -88.41874 | 2094 ft | 73 kts | 342° |
| 2026-04-19 15:23 | 41.76634 | -88.42099 | 1901 ft | 70 kts | 318° |
| 2026-04-19 15:23 | 41.76934 | -88.42543 | 1823 ft | 64 kts | 288° |
| 2026-04-19 15:23 | 41.77035 | -88.43097 | 1727 ft | 60 kts | 274° |
| 2026-04-19 15:23 | 41.77052 | -88.43682 | 1444 ft | 67 kts | 273° |
| 2026-04-19 15:24 | 41.77049 | -88.44317 | 1157 ft | 71 kts | 275° |
| 2026-04-19 15:24 | 41.77037 | -88.44920 | 1014 ft | 60 kts | 279° |
| 2026-04-19 15:24 | 41.77040 | -88.45449 | 881 ft | 55 kts | 281° |
| 2026-04-19 15:24 | 41.77049 | -88.45938 | 757 ft | 52 kts | 279° |
| 2026-04-19 15:25 | 41.77035 | -88.46407 | 733 ft | 46 kts | 283° |
| 2026-04-19 15:25 | 41.77041 | -88.46765 | 707 ft | 32 kts | 265° |
| 2026-04-19 15:25 | 41.77033 | -88.47026 | 706 ft | 17 kts | 264° |
| 2026-04-19 15:25 | 41.76979 | -88.47071 | 706 ft | 10 kts | 180° |
| 2026-04-19 15:26 | 41.76920 | -88.47016 | 706 ft | 8 kts | 120° |
| 2026-04-19 15:26 | 41.76857 | -88.46987 | 702 ft | 9 kts | 123° |
| 2026-04-19 15:26 | 41.76767 | -88.46976 | 704 ft | 15 kts | 184° |
| 2026-04-19 15:26 | 41.76734 | -88.46925 | 705 ft | 6 kts | 24° |
| 2026-04-19 15:27 | 41.76753 | -88.46930 | 705 ft | 0 kts | 288° |
| 2026-04-19 15:27 | 41.76753 | -88.46943 | 702 ft | 0 kts | 270° |